Time;durP1;ratioP1;P1;durP2;ratioP2;P2;SDS_P1;SDS_P2;PMS_P1;PMS_P2;Temp;Humidity;BMP_temperature;BMP_pressure;BME280_temperature;BME280_humidity;BME280_pressure;Samples;Min_cycle;Max_cycle;Signal;HPM_P1;HPM_P2
2021/10/13 00:00:09;;;;;;;25.10;14.75;;;;;;;11.41;90.54;99261.94;4992277;28;20508;-74
2021/10/13 00:02:35;;;;;;;25.98;15.60;;;;;;;11.48;91.36;99289.44;4989678;28;20057;-74
2021/10/13 00:05:01;;;;;;;26.33;14.82;;;;;;;11.56;90.71;99291.19;4997037;28;20316;-73
2021/10/13 00:07:26;;;;;;;25.83;14.25;;;;;;;11.61;89.63;99291.47;4991599;28;20058;-74
2021/10/13 00:09:52;;;;;;;24.65;14.32;;;;;;;11.52;90.31;99288.88;5002821;28;20041;-74
2021/10/13 00:12:18;;;;;;;24.52;14.07;;;;;;;11.52;90.09;99301.31;5000503;28;20034;-74
2021/10/13 00:14:43;;;;;;;24.42;15.05;;;;;;;11.63;89.49;99286.81;4991641;28;20034;-73
2021/10/13 00:17:09;;;;;;;29.30;15.80;;;;;;;11.47;90.11;99287.78;5003094;28;20038;-72
2021/10/13 00:19:34;;;;;;;30.30;16.58;;;;;;;11.50;90.17;99298.03;5000060;28;20053;-74
2021/10/13 00:22:00;;;;;;;30.27;16.75;;;;;;;11.38;90.56;99281.69;4983351;28;20089;-73
2021/10/13 00:24:25;;;;;;;25.33;15.23;;;;;;;11.45;89.58;99282.66;4991008;28;20124;-74
2021/10/13 00:26:51;;;;;;;26.95;15.20;;;;;;;11.35;89.52;99275.91;4998377;28;20062;-72
2021/10/13 00:29:17;;;;;;;24.63;14.95;;;;;;;11.50;88.43;99287.41;4998948;28;20041;-72
2021/10/13 00:31:42;;;;;;;26.83;15.95;;;;;;;11.48;89.94;99292.91;4991572;28;20038;-74
2021/10/13 00:34:07;;;;;;;23.77;14.35;;;;;;;11.39;90.05;99295.75;4994630;28;20039;-73
2021/10/13 00:36:33;;;;;;;27.60;14.75;;;;;;;11.35;89.04;99290.00;4992862;28;20096;-73
2021/10/13 00:38:58;;;;;;;22.60;13.73;;;;;;;11.29;89.34;99290.72;4991335;28;20046;-73
2021/10/13 00:41:24;;;;;;;27.33;14.10;;;;;;;11.29;88.93;99287.22;4990729;28;20048;-73
2021/10/13 00:43:49;;;;;;;23.58;13.77;;;;;;;11.27;89.46;99291.88;4991956;28;20098;-72
2021/10/13 00:46:15;;;;;;;24.55;13.98;;;;;;;11.19;89.67;99290.94;4982980;28;20053;-72
2021/10/13 00:48:40;;;;;;;23.52;14.10;;;;;;;11.23;89.75;99293.25;4986958;28;20034;-73
2021/10/13 00:51:06;;;;;;;24.25;14.35;;;;;;;11.26;88.43;99283.09;4991988;28;20053;-73
2021/10/13 00:53:31;;;;;;;25.02;13.75;;;;;;;11.15;89.40;99273.75;4993979;28;20042;-73
2021/10/13 00:55:57;;;;;;;23.17;13.90;;;;;;;11.19;88.39;99285.66;5000581;28;20030;-73
2021/10/13 00:58:26;;;;;;;24.02;14.60;;;;;;;11.19;89.48;99290.13;5001949;28;20093;-73
2021/10/13 01:01:01;;;;;;;24.65;13.52;;;;;;;11.12;88.58;99274.09;4994289;28;20027;-73
2021/10/13 01:03:35;;;;;;;21.70;12.27;;;;;;;11.12;89.16;99278.56;4988102;28;20069;-73
2021/10/13 01:06:49;;;;;;;22.40;13.25;;;;;;;11.15;89.03;99283.53;4983083;28;20038;-73
2021/10/13 01:09:21;;;;;;;21.95;13.60;;;;;;;11.12;89.38;99279.41;4973262;28;20649;-73
2021/10/13 01:12:12;;;;;;;20.67;12.68;;;;;;;11.17;89.30;99284.16;4986468;28;20045;-73
2021/10/13 01:15:00;;;;;;;26.63;13.00;;;;;;;11.13;88.83;99288.19;4986918;28;22655;-73
2021/10/13 01:17:35;;;;;;;19.23;11.77;;;;;;;11.16;88.68;99285.19;4988184;28;20351;-74
2021/10/13 01:20:29;;;;;;;20.83;12.48;;;;;;;11.24;88.24;99279.00;4991043;28;20376;-73
2021/10/13 01:23:32;;;;;;;24.43;11.00;;;;;;;11.13;88.45;99285.53;4990587;28;20097;-72
2021/10/13 01:26:16;;;;;;;17.70;10.85;;;;;;;11.09;89.02;99285.06;4997084;28;20041;-74
2021/10/13 01:28:44;;;;;;;18.80;10.23;;;;;;;11.15;88.46;99278.22;4986235;28;20240;-73
2021/10/13 01:31:17;;;;;;;18.20;11.63;;;;;;;11.17;87.91;99284.16;4984227;28;20244;-73
2021/10/13 01:33:57;;;;;;;17.10;11.10;;;;;;;11.20;86.47;99289.13;4982066;28;20075;-73
2021/10/13 01:36:30;;;;;;;14.63;10.10;;;;;;;11.07;87.62;99286.22;4991134;28;20113;-73
2021/10/13 01:38:58;;;;;;;16.17;10.35;;;;;;;11.08;87.39;99296.66;5001652;28;20037;-74
2021/10/13 01:41:25;;;;;;;20.13;11.20;;;;;;;11.11;87.69;99290.19;4990446;28;20114;-74
2021/10/13 01:43:53;;;;;;;19.65;11.07;;;;;;;11.02;87.85;99284.09;4982498;28;20046;-73
2021/10/13 01:46:21;;;;;;;22.10;11.75;;;;;;;11.06;86.88;99300.47;4985649;28;20034;-73
2021/10/13 01:48:48;;;;;;;17.63;10.77;;;;;;;11.14;87.19;99295.94;4993450;28;20018;-73
2021/10/13 01:51:15;;;;;;;19.15;10.63;;;;;;;11.18;86.27;99293.78;4986710;28;20054;-73
2021/10/13 01:53:42;;;;;;;15.38;10.02;;;;;;;11.23;86.10;99293.25;4986999;28;20034;-73
2021/10/13 01:56:10;;;;;;;18.30;10.45;;;;;;;11.28;85.99;99294.34;4991023;28;20046;-72
2021/10/13 01:58:37;;;;;;;17.30;10.35;;;;;;;11.29;85.97;99300.47;4991264;28;20042;-74
2021/10/13 02:01:06;;;;;;;16.33;10.55;;;;;;;11.29;86.12;99297.84;4986669;28;20053;-74
2021/10/13 02:03:33;;;;;;;16.80;10.07;;;;;;;11.35;85.60;99308.56;4989764;28;20421;-73
2021/10/13 02:06:03;;;;;;;14.95;9.60;;;;;;;11.32;85.75;99294.81;5001042;28;20101;-73
2021/10/13 02:08:31;;;;;;;14.15;9.75;;;;;;;11.40;85.00;99302.72;4998785;28;20076;-74
2021/10/13 02:10:59;;;;;;;14.55;10.05;;;;;;;11.28;85.26;99298.84;4989561;28;20030;-73
2021/10/13 02:13:30;;;;;;;17.25;10.35;;;;;;;11.25;86.22;99307.97;4986108;28;20039;-74
2021/10/13 02:15:58;;;;;;;13.70;9.32;;;;;;;11.27;85.69;99299.84;4989533;28;20038;-72
2021/10/13 02:18:27;;;;;;;16.20;10.23;;;;;;;11.27;85.22;99310.44;4994725;28;20062;-72
2021/10/13 02:20:55;;;;;;;16.52;10.05;;;;;;;11.15;85.45;99313.50;4997247;28;20528;-73
2021/10/13 02:23:24;;;;;;;14.27;9.90;;;;;;;11.11;86.04;99314.03;4993364;28;20117;-74
2021/10/13 02:25:52;;;;;;;14.13;9.30;;;;;;;11.18;85.35;99309.66;4990878;28;20034;-73
2021/10/13 02:28:30;;;;;;;14.50;9.55;;;;;;;11.12;85.82;99313.03;4999021;28;20465;-73
2021/10/13 02:30:55;;;;;;;17.48;9.40;;;;;;;11.25;85.66;99309.78;4999062;28;20026;-73
2021/10/13 02:33:20;;;;;;;15.82;9.57;;;;;;;11.12;85.49;99319.16;4986521;28;20343;-73
2021/10/13 02:35:46;;;;;;;17.85;9.88;;;;;;;11.05;86.27;99320.84;4985136;28;20035;-73
2021/10/13 02:38:11;;;;;;;16.63;9.95;;;;;;;11.14;85.07;99324.28;4986528;28;20042;-73
2021/10/13 02:40:37;;;;;;;15.48;9.75;;;;;;;11.09;85.49;99331.94;4990552;28;20038;-72
2021/10/13 02:43:04;;;;;;;16.25;10.27;;;;;;;11.10;85.81;99328.28;4990331;28;20072;-74
2021/10/13 02:45:36;;;;;;;16.50;10.18;;;;;;;11.10;85.65;99334.41;4989281;28;20287;-73
2021/10/13 02:48:11;;;;;;;18.65;10.93;;;;;;;11.15;85.49;99329.41;4995044;28;20026;-73
2021/10/13 02:50:49;;;;;;;14.85;10.38;;;;;;;11.30;84.75;99324.16;4994061;28;20038;-73
2021/10/13 02:53:24;;;;;;;15.38;10.00;;;;;;;11.16;85.37;99331.03;5002240;28;20039;-74
2021/10/13 02:55:54;;;;;;;16.08;10.68;;;;;;;11.17;84.92;99329.22;5004126;28;20043;-74
2021/10/13 02:58:40;;;;;;;16.33;10.10;;;;;;;11.19;85.37;99341.28;4996626;28;20046;-73
2021/10/13 03:01:10;;;;;;;20.52;10.70;;;;;;;11.20;84.35;99342.13;5011879;28;20315;-74
2021/10/13 03:03:47;;;;;;;19.23;11.43;;;;;;;11.23;84.62;99348.91;4991950;28;20113;-72
2021/10/13 03:06:14;;;;;;;18.77;11.43;;;;;;;11.13;84.17;99334.06;4992546;28;20027;-74
2021/10/13 03:08:46;;;;;;;17.70;10.73;;;;;;;11.07;85.10;99345.34;4988951;28;20038;-74
2021/10/13 03:11:13;;;;;;;19.98;10.98;;;;;;;11.10;85.25;99342.34;5003870;28;20038;-74
2021/10/13 03:13:42;;;;;;;16.15;10.13;;;;;;;11.07;84.62;99342.69;5003831;28;20069;-74
2021/10/13 03:16:09;;;;;;;16.02;10.10;;;;;;;11.13;83.93;99359.72;4994578;28;20065;-73
2021/10/13 03:18:36;;;;;;;18.13;11.30;;;;;;;11.13;84.37;99351.78;4991027;28;20098;-73
2021/10/13 03:21:03;;;;;;;16.35;10.68;;;;;;;11.09;84.56;99353.94;4992782;28;20054;-73
2021/10/13 03:23:28;;;;;;;16.58;10.10;;;;;;;11.05;84.04;99359.78;4989324;28;20039;-73
2021/10/13 03:26:04;;;;;;;19.90;10.98;;;;;;;11.08;85.71;99352.28;4994880;28;20101;-72
2021/10/13 03:28:31;;;;;;;17.05;10.57;;;;;;;11.05;84.93;99351.81;4998743;28;20065;-73
2021/10/13 03:30:56;;;;;;;22.42;11.70;;;;;;;11.19;84.14;99359.84;4997938;28;20308;-73
2021/10/13 03:33:22;;;;;;;19.70;11.65;;;;;;;11.15;83.66;99355.91;4994465;28;20049;-73
2021/10/13 03:35:47;;;;;;;20.63;12.93;;;;;;;11.21;84.50;99364.97;4987064;28;20046;-73
2021/10/13 03:38:13;;;;;;;22.98;13.55;;;;;;;11.12;83.46;99352.78;4988550;28;20252;-73
2021/10/13 03:40:38;;;;;;;18.60;12.20;;;;;;;11.14;83.12;99356.91;4991842;28;20042;-74
2021/10/13 03:43:04;;;;;;;20.58;12.55;;;;;;;11.18;83.35;99355.53;4993660;28;20084;-73
2021/10/13 03:45:29;;;;;;;21.58;12.23;;;;;;;11.15;83.44;99347.94;4995714;28;20022;-73
2021/10/13 03:47:55;;;;;;;19.02;12.77;;;;;;;11.11;83.55;99345.81;4999290;28;20324;-72
2021/10/13 03:50:21;;;;;;;20.30;11.73;;;;;;;11.13;83.83;99357.91;4989956;28;20065;-72
2021/10/13 03:52:49;;;;;;;19.80;13.20;;;;;;;11.26;83.21;99353.84;4995910;28;20037;-74
2021/10/13 03:55:16;;;;;;;23.33;13.57;;;;;;;11.12;83.89;99363.38;4993636;28;20034;-73
2021/10/13 03:57:42;;;;;;;22.38;13.98;;;;;;;11.16;83.33;99370.78;4990492;28;20328;-74
2021/10/13 04:00:11;;;;;;;17.10;11.75;;;;;;;11.10;83.92;99360.91;4987915;28;20042;-73
2021/10/13 04:02:36;;;;;;;19.55;11.82;;;;;;;11.05;84.38;99359.78;4993673;28;20328;-74
2021/10/13 04:05:04;;;;;;;18.40;10.93;;;;;;;11.04;83.64;99356.28;4994208;28;20178;-74
2021/10/13 04:07:30;;;;;;;23.05;13.77;;;;;;;10.97;83.89;99350.03;4999444;28;20262;-72
2021/10/13 04:09:55;;;;;;;20.23;13.23;;;;;;;10.96;84.40;99366.13;4983313;28;20085;-72
2021/10/13 04:12:21;;;;;;;20.15;13.32;;;;;;;11.03;83.99;99369.72;4988629;28;20057;-73
2021/10/13 04:14:46;;;;;;;19.25;12.02;;;;;;;11.05;84.08;99373.00;4991421;28;20023;-74
2021/10/13 04:17:12;;;;;;;20.10;12.23;;;;;;;11.10;82.88;99365.38;4982181;28;20072;-74
2021/10/13 04:19:37;;;;;;;20.88;12.05;;;;;;;11.13;83.55;99372.97;4984607;28;20312;-74
2021/10/13 04:22:03;;;;;;;19.52;12.60;;;;;;;11.14;83.10;99366.66;4986337;28;20316;-73
2021/10/13 04:24:28;;;;;;;20.13;13.02;;;;;;;11.11;82.93;99382.91;4995584;28;20030;-74
2021/10/13 04:26:54;;;;;;;21.10;12.55;;;;;;;11.20;82.85;99384.53;4987600;28;20030;-73
2021/10/13 04:29:19;;;;;;;18.80;12.43;;;;;;;10.88;84.21;99385.53;4983921;28;20037;-73
2021/10/13 04:31:45;;;;;;;21.10;12.95;;;;;;;11.10;83.82;99383.91;4983210;28;20027;-73
2021/10/13 04:34:10;;;;;;;21.63;13.50;;;;;;;11.03;83.83;99381.13;4999452;28;20233;-74
2021/10/13 04:36:35;;;;;;;21.20;12.73;;;;;;;11.25;82.87;99391.94;4993335;28;20053;-72
2021/10/13 04:39:01;;;;;;;23.73;14.05;;;;;;;10.90;83.30;99386.19;4989723;28;20038;-73
2021/10/13 04:41:26;;;;;;;25.25;15.00;;;;;;;10.80;84.77;99385.56;5003039;28;20031;-74
2021/10/13 04:43:52;;;;;;;29.13;18.00;;;;;;;10.85;84.25;99397.28;5002382;28;20031;-73
2021/10/13 04:46:17;;;;;;;28.30;16.60;;;;;;;10.95;84.71;99398.91;5002811;28;20081;-73
2021/10/13 04:48:42;;;;;;;32.38;18.17;;;;;;;10.90;84.32;99401.25;5003386;28;20224;-74
2021/10/13 04:51:08;;;;;;;32.38;19.35;;;;;;;10.88;85.28;99404.88;5003645;28;20042;-73
2021/10/13 04:53:33;;;;;;;36.75;19.40;;;;;;;10.98;84.78;99409.16;5003216;28;20045;-73
2021/10/13 04:55:59;;;;;;;29.58;17.20;;;;;;;11.09;84.63;99395.50;5002809;28;20038;-73
2021/10/13 04:58:24;;;;;;;26.38;15.60;;;;;;;11.25;83.80;99406.03;5003196;28;20268;-73
2021/10/13 05:00:50;;;;;;;33.28;17.00;;;;;;;11.36;83.79;99413.59;5003447;28;20269;-74
2021/10/13 05:03:15;;;;;;;31.80;16.45;;;;;;;11.27;83.57;99414.63;5003304;28;20039;-74
2021/10/13 05:05:41;;;;;;;25.13;13.82;;;;;;;11.18;84.50;99421.78;5003218;28;20050;-73
2021/10/13 05:08:07;;;;;;;26.33;15.15;;;;;;;11.19;83.95;99418.16;5002878;28;20042;-72
2021/10/13 05:10:32;;;;;;;28.77;15.60;;;;;;;11.39;83.72;99417.69;5002799;28;20316;-73
2021/10/13 05:12:58;;;;;;;27.23;14.18;;;;;;;11.39;84.10;99421.19;5001237;28;20030;-73
2021/10/13 05:15:24;;;;;;;25.08;14.57;;;;;;;11.56;83.36;99427.22;5002418;28;20052;-73
2021/10/13 05:17:49;;;;;;;25.15;15.48;;;;;;;11.73;82.58;99434.06;5002833;28;20185;-73
2021/10/13 05:20:14;;;;;;;28.38;14.25;;;;;;;11.63;82.67;99430.84;5002634;28;20050;-73
2021/10/13 05:22:40;;;;;;;24.95;15.55;;;;;;;11.67;83.29;99441.91;5002943;28;20081;-74
2021/10/13 05:25:06;;;;;;;33.25;17.42;;;;;;;11.91;81.91;99441.75;4997843;28;20034;-73
2021/10/13 05:27:32;;;;;;;27.40;15.80;;;;;;;12.07;80.95;99438.97;4995156;28;20042;-74
2021/10/13 05:29:57;;;;;;;26.45;15.30;;;;;;;12.04;81.77;99454.44;5001577;28;20197;-74
2021/10/13 05:32:23;;;;;;;26.55;17.42;;;;;;;12.07;81.78;99449.59;5001772;28;20033;-73
2021/10/13 05:34:48;;;;;;;24.80;16.30;;;;;;;12.08;81.93;99453.91;5001386;28;20038;-74
2021/10/13 05:37:14;;;;;;;25.83;16.05;;;;;;;12.14;80.53;99457.66;5001767;28;20038;-74
2021/10/13 05:39:39;;;;;;;27.35;16.30;;;;;;;12.06;81.48;99463.88;5001438;28;20057;-73
2021/10/13 05:42:05;;;;;;;29.70;15.73;;;;;;;12.02;82.08;99475.00;4999850;28;20046;-73
2021/10/13 05:44:30;;;;;;;26.35;16.10;;;;;;;11.94;81.83;99459.97;4994450;28;20073;-74
2021/10/13 05:46:56;;;;;;;29.05;19.27;;;;;;;12.10;80.96;99477.59;4995838;28;20145;-73
2021/10/13 05:49:21;;;;;;;30.17;18.27;;;;;;;12.08;81.09;99476.97;4995742;28;20037;-72
2021/10/13 05:51:47;;;;;;;29.90;16.67;;;;;;;12.05;81.41;99487.94;4995540;28;20112;-73
2021/10/13 05:54:12;;;;;;;27.40;16.38;;;;;;;12.19;80.64;99487.16;4994343;28;20030;-73
2021/10/13 05:56:38;;;;;;;28.45;16.17;;;;;;;11.96;81.21;99495.13;4995766;28;20030;-73
2021/10/13 05:59:04;;;;;;;26.50;16.02;;;;;;;12.09;80.61;99481.25;4996524;28;20044;-73
2021/10/13 06:01:29;;;;;;;24.38;15.23;;;;;;;12.11;80.10;99498.66;4996300;28;20054;-73
2021/10/13 06:03:55;;;;;;;30.83;16.67;;;;;;;12.43;79.11;99492.25;4995141;28;20034;-73
2021/10/13 06:06:21;;;;;;;25.08;14.25;;;;;;;12.26;78.68;99495.22;4996357;28;20042;-73
2021/10/13 06:08:46;;;;;;;26.60;15.07;;;;;;;12.32;79.17;99510.44;4996491;28;20092;-73
2021/10/13 06:11:12;;;;;;;29.75;13.90;;;;;;;12.34;79.04;99503.94;4993047;28;20045;-72
2021/10/13 06:13:39;;;;;;;22.80;14.00;;;;;;;12.31;78.78;99501.66;4995679;28;20062;-72
2021/10/13 06:16:07;;;;;;;26.00;14.60;;;;;;;12.30;79.41;99518.59;4995787;28;20046;-73
2021/10/13 06:18:33;;;;;;;25.60;15.55;;;;;;;12.32;79.56;99511.25;4997610;28;20153;-74
2021/10/13 06:20:59;;;;;;;25.60;15.15;;;;;;;12.54;77.97;99512.25;4994502;28;20098;-73
2021/10/13 06:23:25;;;;;;;21.50;13.95;;;;;;;12.36;77.33;99514.38;4995885;28;20042;-73
2021/10/13 06:25:50;;;;;;;24.05;15.20;;;;;;;12.45;77.65;99527.41;4994020;28;20034;-73
2021/10/13 06:28:16;;;;;;;27.13;16.30;;;;;;;12.38;77.79;99528.31;4995389;28;20070;-73
2021/10/13 06:30:42;;;;;;;22.88;13.90;;;;;;;12.53;76.08;99529.19;4993445;28;20718;-73
2021/10/13 06:33:07;;;;;;;22.80;14.88;;;;;;;12.46;75.66;99533.56;4996052;28;20255;-73
2021/10/13 06:35:33;;;;;;;21.73;14.23;;;;;;;12.39;76.04;99530.78;4993590;28;20026;-72
2021/10/13 06:37:59;;;;;;;24.17;14.95;;;;;;;12.50;75.71;99540.19;4994144;28;20220;-72
2021/10/13 06:40:24;;;;;;;24.50;15.05;;;;;;;12.63;75.63;99536.91;4996294;28;20049;-73
2021/10/13 06:42:50;;;;;;;25.17;15.35;;;;;;;12.65;76.31;99538.38;4999440;28;20030;-73
2021/10/13 06:45:16;;;;;;;27.77;15.38;;;;;;;12.93;74.70;99543.09;4994508;28;20231;-73
2021/10/13 06:47:41;;;;;;;20.42;13.48;;;;;;;12.86;75.03;99547.50;4996385;28;20077;-73
2021/10/13 06:50:08;;;;;;;24.38;15.15;;;;;;;12.92;74.81;99546.75;4994664;28;20030;-73
2021/10/13 06:52:34;;;;;;;22.20;13.50;;;;;;;12.90;73.33;99556.75;4996451;28;20041;-73
2021/10/13 06:55:00;;;;;;;25.45;14.40;;;;;;;12.95;75.02;99562.34;4995775;28;20034;-73
2021/10/13 06:57:25;;;;;;;22.15;14.10;;;;;;;12.95;73.43;99557.03;4994690;28;20370;-73
2021/10/13 06:59:51;;;;;;;26.85;14.82;;;;;;;13.09;72.98;99559.69;4996647;28;20105;-72
2021/10/13 07:02:16;;;;;;;20.75;13.52;;;;;;;13.01;72.94;99556.31;4993591;28;20339;-73
2021/10/13 07:04:42;;;;;;;21.45;14.43;;;;;;;13.05;73.21;99560.25;4995364;28;20222;-73
2021/10/13 07:07:07;;;;;;;29.55;14.90;;;;;;;13.14;72.72;99563.63;4997911;28;20038;-73
2021/10/13 07:09:33;;;;;;;20.25;13.52;;;;;;;13.11;71.70;99570.16;4998025;28;20026;-74
2021/10/13 07:11:59;;;;;;;22.67;14.60;;;;;;;13.21;71.32;99559.28;4999080;28;20054;-73
2021/10/13 07:14:24;;;;;;;24.15;13.55;;;;;;;13.32;70.79;99575.59;4998482;28;20089;-72
2021/10/13 07:16:50;;;;;;;19.90;13.57;;;;;;;13.29;71.44;99567.97;4998275;28;20046;-73
2021/10/13 07:19:15;;;;;;;28.92;14.60;;;;;;;13.43;70.60;99572.47;4998712;28;20030;-74
2021/10/13 07:21:41;;;;;;;21.63;14.32;;;;;;;13.35;70.77;99577.88;4998572;28;20030;-73
2021/10/13 07:24:06;;;;;;;25.15;13.52;;;;;;;13.38;71.07;99584.66;4998630;28;20041;-74
2021/10/13 07:26:34;;;;;;;24.50;14.27;;;;;;;13.33;71.01;99569.28;5000285;28;20047;-73
2021/10/13 07:28:59;;;;;;;22.92;13.65;;;;;;;13.51;71.11;99581.38;4997339;28;20042;-73
2021/10/13 07:31:26;;;;;;;20.88;13.73;;;;;;;13.60;70.20;99583.78;4998977;28;20029;-73
2021/10/13 07:33:52;;;;;;;26.05;14.52;;;;;;;13.83;69.98;99582.81;4998281;28;20083;-73
2021/10/13 07:36:17;;;;;;;28.27;14.82;;;;;;;13.98;68.65;99578.28;4998140;28;20263;-74
2021/10/13 07:38:43;;;;;;;24.17;15.45;;;;;;;14.08;68.70;99584.13;4997043;28;20042;-73
2021/10/13 07:41:08;;;;;;;24.27;14.68;;;;;;;14.12;67.98;99585.41;4999325;28;20030;-73
2021/10/13 07:43:34;;;;;;;26.65;14.95;;;;;;;14.18;69.13;99587.31;4998156;28;20089;-73
2021/10/13 07:45:59;;;;;;;20.48;13.75;;;;;;;14.30;68.21;99584.97;4998739;28;20034;-74
2021/10/13 07:48:25;;;;;;;20.33;13.35;;;;;;;14.16;67.99;99572.53;5013618;28;20037;-73
2021/10/13 07:50:52;;;;;;;22.25;13.25;;;;;;;14.15;67.22;99579.69;4998251;28;20092;-73
2021/10/13 07:53:18;;;;;;;27.75;15.73;;;;;;;14.25;68.98;99574.88;4997600;28;20042;-74
2021/10/13 07:55:43;;;;;;;21.08;13.00;;;;;;;14.54;66.96;99589.94;4998740;28;20069;-73
2021/10/13 07:58:09;;;;;;;18.70;12.98;;;;;;;14.33;65.90;99593.41;4998900;28;20336;-74
2021/10/13 08:00:35;;;;;;;21.38;14.00;;;;;;;14.54;65.56;99603.25;4999989;28;20084;-74
2021/10/13 08:03:00;;;;;;;16.50;11.35;;;;;;;14.56;65.55;99605.72;5011728;28;20110;-73
2021/10/13 08:05:26;;;;;;;19.80;13.40;;;;;;;14.63;66.55;99596.81;4996772;28;20037;-73
2021/10/13 08:07:51;;;;;;;19.08;12.75;;;;;;;14.70;65.53;99607.53;4997428;28;20034;-73
2021/10/13 08:10:17;;;;;;;18.80;12.65;;;;;;;14.84;64.50;99606.63;4996991;28;20022;-73
2021/10/13 08:12:42;;;;;;;20.15;13.27;;;;;;;14.79;64.43;99598.38;4998752;28;20045;-73
2021/10/13 08:15:09;;;;;;;20.30;12.35;;;;;;;14.94;63.80;99604.44;4997525;28;20060;-74
2021/10/13 08:17:34;;;;;;;20.73;12.00;;;;;;;14.79;64.00;99595.72;4994981;28;20069;-73
2021/10/13 08:20:03;;;;;;;19.08;12.75;;;;;;;14.96;63.49;99598.91;4999241;28;20034;-74
2021/10/13 08:22:29;;;;;;;21.33;12.57;;;;;;;15.07;63.10;99598.38;4996285;28;20708;-73
2021/10/13 08:24:54;;;;;;;20.60;12.02;;;;;;;15.16;63.04;99589.22;4998537;28;20061;-74
2021/10/13 08:27:20;;;;;;;22.25;13.77;;;;;;;15.16;63.52;99591.88;4998534;28;20109;-74
2021/10/13 08:29:45;;;;;;;18.75;12.18;;;;;;;15.14;62.47;99593.09;4996668;28;20022;-73
2021/10/13 08:32:10;;;;;;;22.02;13.32;;;;;;;15.19;62.85;99588.00;4998958;28;20052;-73
2021/10/13 08:34:36;;;;;;;21.92;13.02;;;;;;;15.20;63.33;99584.31;4995228;28;20138;-73
2021/10/13 08:37:01;;;;;;;24.15;13.55;;;;;;;15.20;63.56;99584.31;4997749;28;20034;-74
2021/10/13 08:39:27;;;;;;;21.27;12.95;;;;;;;15.16;63.08;99586.56;4998949;28;20042;-73
2021/10/13 08:41:52;;;;;;;19.35;12.40;;;;;;;15.09;61.66;99599.00;4997334;28;20088;-74
2021/10/13 08:44:18;;;;;;;23.55;13.20;;;;;;;15.03;61.92;99605.13;5010079;28;20065;-73
2021/10/13 08:46:44;;;;;;;19.92;13.05;;;;;;;14.90;62.13;99603.19;4998367;28;20186;-74
2021/10/13 08:49:10;;;;;;;18.80;12.93;;;;;;;14.80;61.60;99609.88;4996762;28;20045;-74
2021/10/13 08:51:38;;;;;;;18.23;12.80;;;;;;;14.72;61.86;99607.34;4996080;28;20033;-74
2021/10/13 08:54:04;;;;;;;21.52;14.70;;;;;;;14.62;62.90;99565.84;4998272;28;20081;-74
2021/10/13 08:56:30;;;;;;;19.42;12.77;;;;;;;14.88;62.33;99601.72;4996904;28;20042;-74
2021/10/13 08:58:57;;;;;;;17.73;13.07;;;;;;;14.87;61.38;99608.06;4996106;28;20322;-74
2021/10/13 09:01:22;;;;;;;22.88;12.98;;;;;;;14.99;61.87;99614.53;4997799;28;20029;-74
2021/10/13 09:03:59;;;;;;;20.00;12.93;;;;;;;15.02;61.23;99614.16;4996725;28;20038;-74
2021/10/13 09:06:26;;;;;;;21.60;13.23;;;;;;;15.11;61.09;99606.81;4995146;28;20041;-73
2021/10/13 09:09:03;;;;;;;25.48;15.02;;;;;;;15.33;61.33;99605.75;4996579;28;20038;-74
2021/10/13 09:11:47;;;;;;;20.25;13.05;;;;;;;15.32;61.83;99601.41;4995538;28;20062;-74
2021/10/13 09:14:14;;;;;;;21.17;13.48;;;;;;;15.09;61.54;99604.34;4998013;28;20038;-74
2021/10/13 09:16:49;;;;;;;25.83;15.38;;;;;;;15.05;62.00;99602.25;4995456;28;20046;-74
2021/10/13 09:19:14;;;;;;;20.98;12.68;;;;;;;15.20;61.12;99608.31;4996798;28;20049;-74
2021/10/13 09:21:50;;;;;;;20.05;12.73;;;;;;;15.14;59.97;99609.09;4995252;28;20328;-74
2021/10/13 09:24:16;;;;;;;22.42;13.15;;;;;;;15.18;61.18;99597.03;4997561;28;20026;-74
2021/10/13 09:26:41;;;;;;;25.77;15.75;;;;;;;15.32;62.00;99607.59;4996863;28;20048;-73
2021/10/13 09:29:08;;;;;;;19.20;14.80;;;;;;;15.34;60.28;99608.22;4995679;28;20319;-73
2021/10/13 09:31:34;;;;;;;21.33;13.82;;;;;;;15.29;60.27;99612.47;4996712;28;20026;-74
2021/10/13 09:34:10;;;;;;;19.60;12.02;;;;;;;15.29;59.92;99620.50;4995596;28;20056;-74
2021/10/13 09:36:43;;;;;;;21.63;13.70;;;;;;;15.36;59.17;99620.53;4995819;28;20284;-74
2021/10/13 09:39:12;;;;;;;19.48;11.23;;;;;;;15.38;58.71;99619.31;4996043;28;20220;-74
2021/10/13 09:42:08;;;;;;;40.65;24.25;;;;;;;15.47;59.24;99619.97;4996900;28;20030;-74
2021/10/13 09:44:36;;;;;;;17.50;12.20;;;;;;;15.40;59.17;99619.94;4995610;28;20091;-74
2021/10/13 09:47:05;;;;;;;48.22;25.17;;;;;;;15.33;58.57;99624.41;4995586;28;20034;-73
2021/10/13 09:49:49;;;;;;;20.23;13.20;;;;;;;15.46;58.96;99631.66;4996736;28;20260;-73
2021/10/13 09:52:16;;;;;;;22.77;15.40;;;;;;;15.51;59.70;99618.56;4997111;28;20032;-74
2021/10/13 09:54:55;;;;;;;19.90;12.75;;;;;;;15.60;58.59;99626.28;4995535;28;20035;-74
2021/10/13 09:57:24;;;;;;;19.92;13.40;;;;;;;15.53;58.83;99632.53;4997044;28;20045;-74
2021/10/13 09:59:57;;;;;;;23.90;14.77;;;;;;;15.44;59.02;99623.03;4996400;28;20038;-74
2021/10/13 10:02:30;;;;;;;33.75;22.42;;;;;;;15.37;56.92;99617.66;4995493;28;20057;-74
2021/10/13 10:04:59;;;;;;;70.63;42.03;;;;;;;15.10;57.35;99630.00;4997361;28;20093;-74
2021/10/13 10:07:25;;;;;;;25.20;15.70;;;;;;;15.24;58.86;99629.06;5009998;28;20215;-74
2021/10/13 10:10:11;;;;;;;21.42;14.27;;;;;;;15.21;59.18;99640.13;4995573;28;20061;-74
2021/10/13 10:12:58;;;;;;;20.15;11.93;;;;;;;15.18;58.79;99639.69;4993297;28;20030;-74
2021/10/13 10:15:48;;;;;;;18.98;12.73;;;;;;;15.10;58.26;99634.50;4993786;28;20287;-74
2021/10/13 10:18:33;;;;;;;25.92;13.90;;;;;;;15.18;58.81;99637.03;4985432;28;20038;-74
2021/10/13 10:21:25;;;;;;;23.30;13.13;;;;;;;15.31;58.99;99635.28;4995799;28;20038;-73
2021/10/13 10:23:52;;;;;;;25.95;16.05;;;;;;;15.42;58.85;99631.25;4995976;28;20038;-73
2021/10/13 10:26:26;;;;;;;30.65;18.27;;;;;;;15.59;59.36;99635.28;4993987;28;20113;-74
2021/10/13 10:28:52;;;;;;;;;;;;;;;15.49;58.35;99634.78;4996683;28;20049;-74
2021/10/13 10:31:38;;;;;;;19.42;11.90;;;;;;;15.43;58.76;99627.56;4993667;28;19925;-74
2021/10/13 10:34:06;;;;;;;18.77;12.18;;;;;;;15.42;58.21;99635.75;4992485;28;20101;-74
2021/10/13 10:36:55;;;;;;;21.95;13.73;;;;;;;15.58;57.17;99641.63;4995110;28;20076;-74
2021/10/13 10:39:41;;;;;;;23.13;13.48;;;;;;;15.55;57.96;99643.84;4982219;28;20205;-74
2021/10/13 10:42:06;;;;;;;26.58;16.20;;;;;;;15.56;57.99;99643.63;4996369;28;20089;-74
2021/10/13 10:44:31;;;;;;;15.57;11.40;;;;;;;15.53;58.04;99644.03;5015023;28;20255;-74
2021/10/13 10:47:08;;;;;;;18.20;12.55;;;;;;;15.50;58.92;99640.94;4996039;28;20138;-73
2021/10/13 10:49:43;;;;;;;21.23;12.70;;;;;;;15.55;58.39;99636.66;4999174;28;20328;-73
2021/10/13 10:52:09;;;;;;;17.98;12.50;;;;;;;15.50;57.38;99639.09;4999594;28;20038;-74
2021/10/13 10:54:35;;;;;;;20.10;13.55;;;;;;;15.48;58.21;99645.63;4997980;28;20026;-74
2021/10/13 10:57:00;;;;;;;19.70;13.43;;;;;;;15.57;58.17;99642.66;5000435;28;20053;-74
2021/10/13 10:59:38;;;;;;;23.00;12.38;;;;;;;15.51;57.99;99640.75;4999219;28;20049;-73
2021/10/13 11:02:09;;;;;;;21.90;12.18;;;;;;;15.57;58.26;99637.31;4997542;28;20133;-74
2021/10/13 11:04:35;;;;;;;23.13;13.52;;;;;;;15.71;58.89;99634.75;4999723;28;20034;-74
2021/10/13 11:07:02;;;;;;;21.77;13.30;;;;;;;15.84;58.20;99632.97;4998637;28;20072;-74
2021/10/13 11:09:27;;;;;;;21.23;12.57;;;;;;;15.84;56.85;99632.97;4998413;28;20299;-74
2021/10/13 11:11:53;;;;;;;23.63;13.63;;;;;;;16.03;57.57;99627.91;4997307;28;20030;-74
2021/10/13 11:14:26;;;;;;;19.02;13.00;;;;;;;15.97;56.38;99629.53;5002618;28;20030;-74
2021/10/13 11:16:59;;;;;;;19.58;12.98;;;;;;;15.98;58.09;99627.69;5004109;28;20049;-75
2021/10/13 11:19:36;;;;;;;26.75;16.85;;;;;;;16.11;57.58;99633.06;5004331;28;20101;-74
2021/10/13 11:22:07;;;;;;;27.83;17.73;;;;;;;16.05;57.33;99626.69;5019221;28;20259;-74